createdAt,value
2018-02-02T00:00:34.378Z,99495.72
2018-02-02T00:03:04.145Z,99492.55
2018-02-02T00:05:32.601Z,99492.70
2018-02-02T00:08:01.406Z,99491.81
2018-02-02T00:10:29.791Z,99490.52
2018-02-02T00:12:58.159Z,99489.64
2018-02-02T00:15:28.061Z,99493.09
2018-02-02T00:17:56.937Z,99500.73
2018-02-02T00:20:26.625Z,99495.48
2018-02-02T00:22:54.997Z,99496.48
2018-02-02T00:25:24.658Z,99501.50
2018-02-02T00:27:53.370Z,99501.40
2018-02-02T00:30:23.268Z,99500.72
2018-02-02T00:32:51.740Z,99505.39
2018-02-02T00:35:21.083Z,99508.91
2018-02-02T00:37:49.957Z,99506.42
2018-02-02T00:40:18.670Z,99502.70
2018-02-02T00:42:47.664Z,99507.00
2018-02-02T00:45:16.781Z,99510.27
2018-02-02T00:47:45.396Z,99519.08
2018-02-02T00:50:14.533Z,99507.48
2018-02-02T00:52:44.279Z,99511.80
2018-02-02T00:55:13.180Z,99504.87
2018-02-02T00:57:42.472Z,99513.56
2018-02-02T01:00:11.686Z,99512.50
2018-02-02T01:02:41.198Z,99513.92
2018-02-02T01:05:11.004Z,99513.98
2018-02-02T01:07:39.438Z,99512.36
2018-02-02T01:10:08.622Z,99512.83
2018-02-02T01:12:38.045Z,99516.27
2018-02-02T01:15:08.041Z,99515.63
2018-02-02T01:17:38.404Z,99510.53
2018-02-02T01:20:07.235Z,99511.67
2018-02-02T01:22:35.951Z,99512.17
2018-02-02T01:25:04.975Z,99518.69
2018-02-02T01:27:33.376Z,99512.53
2018-02-02T01:30:02.308Z,99529.37
2018-02-02T01:32:31.453Z,99524.48
2018-02-02T01:35:00.162Z,99526.37
2018-02-02T01:37:28.668Z,99520.33
2018-02-02T01:39:58.167Z,99518.64
2018-02-02T01:42:28.142Z,99512.95
2018-02-02T01:44:56.939Z,99516.02
2018-02-02T01:47:26.205Z,99520.30
2018-02-02T01:49:55.418Z,99518.49
2018-02-02T01:52:24.282Z,99521.95
2018-02-02T01:54:54.046Z,99518.12
2018-02-02T01:57:22.815Z,99524.23
2018-02-02T01:59:51.305Z,99515.16
2018-02-02T02:02:19.767Z,99520.34
2018-02-02T02:04:49.732Z,99517.72
2018-02-02T02:07:18.852Z,99518.58
2018-02-02T02:09:47.731Z,99514.08
2018-02-02T02:12:16.273Z,99520.08
2018-02-02T02:14:44.999Z,99522.29
2018-02-02T02:17:14.799Z,99520.11
2018-02-02T02:19:43.745Z,99528.70
2018-02-02T02:22:12.168Z,99533.48
2018-02-02T02:24:41.252Z,99523.59
2018-02-02T02:27:10.148Z,99529.87
2018-02-02T02:29:39.760Z,99519.68
2018-02-02T02:32:08.843Z,99517.20
2018-02-02T02:34:37.201Z,99522.25
2018-02-02T02:37:06.410Z,99517.97
2018-02-02T02:39:35.580Z,99532.56
2018-02-02T02:42:04.284Z,99525.48
2018-02-02T02:44:32.629Z,99521.84
2018-02-02T02:47:02.581Z,99520.53
2018-02-02T02:49:31.477Z,99521.75
2018-02-02T02:52:00.670Z,99519.55
2018-02-02T02:54:29.472Z,99516.67
2018-02-02T02:56:58.168Z,99514.39
2018-02-02T02:59:26.851Z,99528.62
2018-02-02T03:01:55.295Z,99525.56
2018-02-02T03:04:24.538Z,99527.81
2018-02-02T03:06:52.938Z,99527.30
2018-02-02T03:09:22.719Z,99534.70
2018-02-02T03:11:51.530Z,99543.45
2018-02-02T03:14:20.750Z,99537.98
2018-02-02T03:16:49.927Z,99542.00
2018-02-02T03:19:18.424Z,99540.23
2018-02-02T03:21:53.345Z,99538.42
2018-02-02T03:24:22.982Z,99533.94
2018-02-02T03:26:52.237Z,99546.52
2018-02-02T03:29:21.048Z,99543.34
2018-02-02T03:31:49.701Z,99545.52
2018-02-02T03:34:18.317Z,99542.47
2018-02-02T03:36:47.487Z,99546.38
2018-02-02T03:39:16.064Z,99552.36
2018-02-02T03:41:44.897Z,99556.09
2018-02-02T03:44:13.905Z,99555.92
2018-02-02T03:46:42.382Z,99559.89
2018-02-02T03:49:11.677Z,99558.95
2018-02-02T03:51:40.527Z,99549.52
2018-02-02T03:54:09.523Z,99557.73
2018-02-02T03:56:38.211Z,99558.63
2018-02-02T03:59:07.942Z,99555.67
2018-02-02T04:01:37.080Z,99555.55
2018-02-02T04:04:05.466Z,99559.69
2018-02-02T04:06:35.169Z,99570.27
2018-02-02T04:09:03.859Z,99562.62
2018-02-02T04:11:32.787Z,99562.72
2018-02-02T04:14:01.558Z,99562.23
2018-02-02T04:16:29.982Z,99556.67
2018-02-02T04:18:59.850Z,99567.94
2018-02-02T04:21:28.547Z,99563.00
2018-02-02T04:23:57.789Z,99570.97
2018-02-02T04:26:26.981Z,99571.58
2018-02-02T04:28:55.850Z,99568.80
2018-02-02T04:31:24.655Z,99566.72
2018-02-02T04:33:53.948Z,99569.42
2018-02-02T04:36:23.067Z,99569.72
2018-02-02T04:38:52.573Z,99561.96
2018-02-02T04:41:21.453Z,99563.20
2018-02-02T04:43:50.484Z,99570.23
2018-02-02T04:46:19.908Z,99565.95
2018-02-02T04:48:49.611Z,99562.05
2018-02-02T04:51:17.998Z,99567.88
2018-02-02T04:53:47.058Z,99572.20
2018-02-02T04:56:15.497Z,99576.28
2018-02-02T04:58:44.534Z,99581.44
2018-02-02T05:01:13.266Z,99585.14
2018-02-02T05:03:42.265Z,99598.17
2018-02-02T05:06:12.037Z,99590.95
2018-02-02T05:08:40.698Z,99591.08
2018-02-02T05:11:10.257Z,99593.79
2018-02-02T05:13:38.937Z,99592.38
2018-02-02T05:16:07.385Z,99596.81
2018-02-02T05:18:36.759Z,99595.84
2018-02-02T05:21:05.675Z,99597.54
2018-02-02T05:23:34.289Z,99597.97
2018-02-02T05:26:03.640Z,99592.39
2018-02-02T05:28:32.858Z,99589.70
2018-02-02T05:31:01.524Z,99579.09
2018-02-02T05:33:30.693Z,99581.86
2018-02-02T05:36:00.347Z,99582.02
2018-02-02T05:38:29.607Z,99583.33
2018-02-02T05:40:58.018Z,99583.69
2018-02-02T05:43:27.520Z,99575.14
2018-02-02T05:45:56.234Z,99578.11
2018-02-02T05:48:25.039Z,99577.16
2018-02-02T05:50:53.743Z,99581.37
2018-02-02T05:53:22.118Z,99580.58
2018-02-02T05:55:51.405Z,99584.03
2018-02-02T05:58:19.995Z,99581.48
2018-02-02T06:00:48.573Z,99582.51
2018-02-02T06:03:17.160Z,99579.98
2018-02-02T06:05:45.550Z,99573.97
2018-02-02T06:08:14.893Z,99577.86
2018-02-02T06:10:44.146Z,99589.20
2018-02-02T06:13:12.936Z,99589.23
2018-02-02T06:15:41.676Z,99594.16
2018-02-02T06:18:10.209Z,99593.80
2018-02-02T06:20:39.733Z,99593.25
2018-02-02T06:23:08.197Z,99585.88
2018-02-02T06:25:36.991Z,99589.25
2018-02-02T06:28:05.937Z,99589.33
2018-02-02T06:30:36.015Z,99595.52
2018-02-02T06:33:06.131Z,99597.52
2018-02-02T06:35:34.610Z,99595.34
2018-02-02T06:38:03.681Z,99599.05
2018-02-02T06:40:32.436Z,99596.84
2018-02-02T06:43:01.285Z,99589.52
2018-02-02T06:45:30.483Z,99600.88
2018-02-02T06:47:59.354Z,99604.20
2018-02-02T06:50:28.901Z,99598.28
2018-02-02T06:52:57.568Z,99600.66
2018-02-02T06:55:27.394Z,99607.00
2018-02-02T06:57:56.662Z,99602.50
2018-02-02T07:00:25.677Z,99604.16
2018-02-02T07:02:55.293Z,99616.50
2018-02-02T07:05:24.564Z,99613.30
2018-02-02T07:07:53.521Z,99615.13
2018-02-02T07:10:22.159Z,99618.40
2018-02-02T07:12:51.870Z,99620.06
2018-02-02T07:15:21.046Z,99618.42
2018-02-02T07:17:49.487Z,99621.38
2018-02-02T07:20:17.990Z,99617.31
2018-02-02T07:22:46.748Z,99622.23
2018-02-02T07:25:15.492Z,99619.11
2018-02-02T07:27:44.232Z,99616.12
2018-02-02T07:30:13.778Z,99621.29
2018-02-02T07:32:43.427Z,99625.80
2018-02-02T07:35:11.907Z,99626.40
2018-02-02T07:37:40.476Z,99620.74
2018-02-02T07:40:09.984Z,99624.30
2018-02-02T07:42:39.342Z,99621.28
2018-02-02T07:45:08.584Z,99626.05
2018-02-02T07:47:37.429Z,99623.02
2018-02-02T07:50:05.870Z,99616.93
2018-02-02T07:52:34.716Z,99620.74
2018-02-02T07:55:04.087Z,99619.41
2018-02-02T07:57:32.659Z,99612.09
2018-02-02T08:00:02.768Z,99615.62
2018-02-02T08:02:31.159Z,99615.65
2018-02-02T08:04:59.729Z,99619.97
2018-02-02T08:07:28.166Z,99621.70
2018-02-02T08:09:57.180Z,99622.57
2018-02-02T08:12:26.460Z,99628.22
2018-02-02T08:14:55.361Z,99629.53
2018-02-02T08:17:25.046Z,99619.53
2018-02-02T08:19:55.190Z,99622.50
2018-02-02T08:22:23.574Z,99623.70
2018-02-02T08:24:51.946Z,99625.19
2018-02-02T08:27:20.622Z,99629.89
2018-02-02T08:29:49.066Z,99623.84
2018-02-02T08:32:17.429Z,99627.31
2018-02-02T08:34:45.941Z,99622.94
2018-02-02T08:37:14.289Z,99621.73
2018-02-02T08:39:43.444Z,99632.09
2018-02-02T08:42:12.216Z,99626.85
2018-02-02T08:44:41.335Z,99627.31
2018-02-02T08:47:10.265Z,99630.72
2018-02-02T08:49:38.980Z,99625.94
2018-02-02T08:52:07.785Z,99626.75
2018-02-02T08:54:36.897Z,99624.92
2018-02-02T08:57:06.611Z,99635.46
2018-02-02T08:59:36.006Z,99629.89
2018-02-02T09:02:06.802Z,99629.45
2018-02-02T09:04:35.245Z,99633.77
2018-02-02T09:07:03.672Z,99632.83
2018-02-02T09:09:32.111Z,99631.17
2018-02-02T09:12:00.531Z,99634.63
2018-02-02T09:14:28.985Z,99634.20
2018-02-02T09:16:57.440Z,99632.77
2018-02-02T09:19:25.872Z,99635.84
2018-02-02T09:21:53.507Z,99633.16
2018-02-02T09:24:21.960Z,99631.81
2018-02-02T09:26:50.804Z,99624.42
2018-02-02T09:29:19.238Z,99635.16
2018-02-02T09:31:47.695Z,99626.42
2018-02-02T09:34:16.628Z,99631.69
2018-02-02T09:36:45.061Z,99629.85
2018-02-02T09:39:13.593Z,99629.55
2018-02-02T09:41:42.076Z,99632.49
2018-02-02T09:44:10.512Z,99633.61
2018-02-02T09:46:39.360Z,99637.20
2018-02-02T09:49:07.832Z,99636.21
2018-02-02T09:51:36.308Z,99638.77
2018-02-02T09:54:04.783Z,99633.02
2018-02-02T09:56:33.220Z,99637.27
2018-02-02T09:59:01.735Z,99626.56
2018-02-02T10:01:30.191Z,99631.05
2018-02-02T10:03:59.130Z,99628.28
2018-02-02T10:06:27.567Z,99622.45
2018-02-02T10:08:56.412Z,99619.85
2018-02-02T10:11:24.855Z,99619.67
2018-02-02T10:13:53.348Z,99622.09
2018-02-02T10:16:21.803Z,99621.13
2018-02-02T10:18:50.624Z,99621.50
2018-02-02T10:21:19.049Z,99615.29
2018-02-02T10:23:47.584Z,99607.36
2018-02-02T10:26:16.020Z,99610.69
2018-02-02T10:28:44.850Z,99606.27
2018-02-02T10:31:13.326Z,99610.30
2018-02-02T10:33:41.764Z,99606.23
2018-02-02T10:36:10.288Z,99598.75
2018-02-02T10:38:38.731Z,99607.92
2018-02-02T10:41:07.161Z,99597.30
2018-02-02T10:43:35.641Z,99600.11
2018-02-02T10:46:04.121Z,99597.69
2018-02-02T10:48:32.618Z,99604.34
2018-02-02T10:51:01.073Z,99597.33
2018-02-02T10:53:29.535Z,99597.63
2018-02-02T10:55:58.380Z,99590.86
2018-02-02T10:58:26.833Z,99597.22
2018-02-02T11:01:00.788Z,99598.86
2018-02-02T11:03:31.200Z,99595.46
2018-02-02T11:05:59.903Z,99590.29
2018-02-02T11:08:28.353Z,99593.60
2018-02-02T11:10:56.796Z,99593.44
2018-02-02T11:13:25.255Z,99592.19
2018-02-02T11:15:54.098Z,99590.32
2018-02-02T11:18:22.537Z,99590.55
2018-02-02T11:20:51.447Z,99585.80
2018-02-02T11:23:19.919Z,99594.78
2018-02-02T11:25:48.414Z,99585.19
2018-02-02T11:28:16.932Z,99579.84
2018-02-02T11:30:45.366Z,99587.02
2018-02-02T11:33:13.817Z,99585.98
2018-02-02T11:35:42.276Z,99588.94
2018-02-02T11:38:10.744Z,99571.34
2018-02-02T11:40:39.220Z,99581.25
2018-02-02T11:43:07.699Z,99584.69
2018-02-02T11:45:36.164Z,99572.03
2018-02-02T11:48:04.600Z,99577.98
2018-02-02T11:50:33.132Z,99577.83
2018-02-02T11:53:01.608Z,99584.72
2018-02-02T11:55:30.060Z,99574.94
2018-02-02T11:57:58.908Z,99580.51
2018-02-02T12:00:27.368Z,99567.58
2018-02-02T12:02:55.787Z,99573.20
2018-02-02T12:05:24.241Z,99576.46
2018-02-02T12:07:52.683Z,99578.80
2018-02-02T12:10:21.120Z,99568.94
2018-02-02T12:12:49.663Z,99572.08
2018-02-02T12:15:18.145Z,99565.34
2018-02-02T12:17:46.588Z,99562.77
2018-02-02T12:20:15.443Z,99564.25
2018-02-02T12:22:54.552Z,99563.64
2018-02-02T12:28:44.180Z,99566.25
2018-02-02T12:31:15.881Z,99571.45
2018-02-02T12:33:48.873Z,99572.81
2018-02-02T12:36:22.327Z,99570.57
2018-02-02T12:38:50.770Z,99574.85
2018-02-02T12:41:19.208Z,99565.33
2018-02-02T12:43:48.054Z,99568.32
2018-02-02T12:46:16.526Z,99565.81
2018-02-02T12:48:45.002Z,99562.70
2018-02-02T12:51:17.135Z,99566.25
2018-02-02T12:53:45.969Z,99565.09
2018-02-02T12:56:14.432Z,99566.82
2018-02-02T12:58:42.880Z,99565.30
2018-02-02T13:01:11.823Z,99564.97
2018-02-02T13:03:40.291Z,99567.62
2018-02-02T13:06:08.752Z,99565.42
2018-02-02T13:08:37.172Z,99567.95
2018-02-02T13:11:05.624Z,99562.73
2018-02-02T13:13:34.084Z,99564.64
2018-02-02T13:16:02.997Z,99556.30
2018-02-02T13:18:31.428Z,99557.36
2018-02-02T13:20:59.880Z,99561.75
2018-02-02T13:23:28.339Z,99561.66
2018-02-02T13:25:56.785Z,99565.78
2018-02-02T13:28:25.631Z,99556.66
2018-02-02T13:30:54.097Z,99560.56
2018-02-02T13:33:22.533Z,99553.69
2018-02-02T13:35:51.472Z,99551.44
2018-02-02T13:38:20.061Z,99558.29
2018-02-02T13:40:48.492Z,99561.66
2018-02-02T13:43:17.427Z,99565.29
2018-02-02T13:45:45.859Z,99564.27
2018-02-02T13:48:14.801Z,99557.75
2018-02-02T13:50:43.273Z,99553.30
2018-02-02T13:53:11.698Z,99548.20
2018-02-02T13:55:40.120Z,99555.85
2018-02-02T13:58:08.578Z,99557.75
2018-02-02T14:00:37.401Z,99557.50
2018-02-02T14:03:05.836Z,99562.89
2018-02-02T14:05:34.292Z,99559.56
2018-02-02T14:08:02.751Z,99561.73
2018-02-02T14:10:31.192Z,99555.94
2018-02-02T14:12:59.714Z,99561.07
2018-02-02T14:15:28.143Z,99557.01
2018-02-02T14:17:56.986Z,99552.45
2018-02-02T14:20:25.467Z,99558.67
2018-02-02T14:22:53.935Z,99552.97
2018-02-02T14:25:22.361Z,99558.75
2018-02-02T14:27:50.815Z,99554.25
2018-02-02T14:30:19.248Z,99549.32
2018-02-02T14:32:48.163Z,99552.23
2018-02-02T14:35:16.625Z,99545.73
2018-02-02T14:37:45.064Z,99549.42
2018-02-02T14:40:13.483Z,99546.40
2018-02-02T14:42:42.336Z,99556.06
2018-02-02T14:45:10.782Z,99552.50
2018-02-02T14:47:39.283Z,99551.89
2018-02-02T14:50:07.775Z,99558.05
2018-02-02T14:52:36.208Z,99566.36
2018-02-02T14:55:04.636Z,99581.14
2018-02-02T14:57:33.275Z,99574.99
2018-02-02T15:00:01.832Z,99568.91
2018-02-02T15:02:30.347Z,99573.19
2018-02-02T15:04:58.803Z,99571.71
2018-02-02T15:07:27.730Z,99567.59
2018-02-02T15:09:56.162Z,99576.55
2018-02-02T15:12:25.032Z,99567.16
2018-02-02T15:14:53.497Z,99573.51
2018-02-02T15:17:21.925Z,99568.62
2018-02-02T15:19:50.849Z,99567.11
2018-02-02T15:22:20.024Z,99566.78
2018-02-02T15:24:48.456Z,99570.95
2018-02-02T15:27:16.915Z,99565.02
2018-02-02T15:29:45.344Z,99566.59
2018-02-02T15:32:14.162Z,99569.20
2018-02-02T15:34:42.684Z,99569.55
2018-02-02T15:37:11.111Z,99570.03
2018-02-02T15:39:40.079Z,99579.27
2018-02-02T15:42:08.543Z,99576.75
2018-02-02T15:44:37.027Z,99579.27
2018-02-02T15:47:05.472Z,99580.69
2018-02-02T15:49:33.929Z,99579.49
2018-02-02T15:52:02.360Z,99583.34
2018-02-02T15:54:30.812Z,99596.83
2018-02-02T15:56:59.325Z,99594.22
2018-02-02T15:59:27.858Z,99588.06
2018-02-02T16:01:56.284Z,99591.15
2018-02-02T16:04:24.754Z,99588.19
2018-02-02T16:06:53.227Z,99585.15
2018-02-02T16:09:21.652Z,99593.36
2018-02-02T16:11:50.503Z,99602.42
2018-02-02T16:14:18.929Z,99590.59
2018-02-02T16:16:47.859Z,99590.99
2018-02-02T16:19:16.311Z,99599.79
2018-02-02T16:21:45.147Z,99602.39
2018-02-02T16:24:13.579Z,99596.31
2018-02-02T16:26:42.426Z,99601.08
2018-02-02T16:29:10.873Z,99604.07
2018-02-02T16:31:39.303Z,99602.88
2018-02-02T16:34:07.757Z,99602.05
2018-02-02T16:36:36.200Z,99606.80
2018-02-02T16:39:04.622Z,99611.97
2018-02-02T16:41:33.063Z,99611.95
2018-02-02T16:44:01.502Z,99615.86
2018-02-02T16:46:29.973Z,99609.36
2018-02-02T16:48:58.428Z,99609.77
2018-02-02T16:51:26.843Z,99621.13
2018-02-02T16:53:55.292Z,99617.20
2018-02-02T16:56:23.718Z,99616.77
2018-02-02T16:58:52.499Z,99614.51
2018-02-02T17:01:20.939Z,99628.53
2018-02-02T17:03:49.416Z,99620.64
2018-02-02T17:06:17.857Z,99622.42
2018-02-02T17:08:46.667Z,99622.03
2018-02-02T17:11:15.104Z,99628.59
2018-02-02T17:13:43.528Z,99626.81
2018-02-02T17:16:12.035Z,99630.67
2018-02-02T17:18:40.475Z,99633.70
2018-02-02T17:21:09.300Z,99629.81
2018-02-02T17:23:37.764Z,99625.48
2018-02-02T17:26:06.217Z,99625.87
2018-02-02T17:28:35.055Z,99629.78
2018-02-02T17:31:03.540Z,99623.28
2018-02-02T17:33:32.019Z,99629.80
2018-02-02T17:36:00.551Z,99629.38
2018-02-02T17:38:29.489Z,99630.72
2018-02-02T17:40:57.936Z,99631.59
2018-02-02T17:43:26.859Z,99637.71
2018-02-02T17:45:55.327Z,99631.94
2018-02-02T17:48:23.816Z,99630.22
2018-02-02T17:50:52.257Z,99636.32
2018-02-02T17:53:21.079Z,99632.44
2018-02-02T17:55:49.559Z,99634.98
2018-02-02T17:58:18.000Z,99637.60
2018-02-02T18:00:51.021Z,99635.87
2018-02-02T18:03:19.905Z,99640.59
2018-02-02T18:05:48.332Z,99639.66
2018-02-02T18:08:16.770Z,99635.20
2018-02-02T18:10:45.271Z,99644.58
2018-02-02T18:13:13.738Z,99642.40
2018-02-02T18:15:42.172Z,99635.50
2018-02-02T18:18:10.620Z,99635.94
2018-02-02T18:20:39.120Z,99641.97
2018-02-02T18:23:07.561Z,99635.02
2018-02-02T18:25:36.059Z,99632.77
2018-02-02T18:28:04.524Z,99635.91
2018-02-02T18:30:33.028Z,99636.77
2018-02-02T18:33:01.914Z,99635.44
2018-02-02T18:35:30.389Z,99638.11
2018-02-02T18:37:59.160Z,99636.88
2018-02-02T18:40:27.657Z,99637.23
2018-02-02T18:42:56.141Z,99643.28
2018-02-02T18:45:24.588Z,99644.63
2018-02-02T18:47:53.511Z,99647.23
2018-02-02T18:50:22.013Z,99639.38
2018-02-02T18:52:50.460Z,99639.83
2018-02-02T18:55:18.887Z,99637.71
2018-02-02T18:57:47.437Z,99635.97
2018-02-02T19:00:15.864Z,99629.07
2018-02-02T19:02:44.387Z,99629.45
2018-02-02T19:05:12.880Z,99636.38
2018-02-02T19:07:41.322Z,99641.15
2018-02-02T19:10:10.160Z,99631.20
2018-02-02T19:12:38.619Z,99633.80
2018-02-02T19:15:07.115Z,99625.52
2018-02-02T19:17:35.552Z,99622.98
2018-02-02T19:20:04.384Z,99633.33
2018-02-02T19:22:32.832Z,99622.10
2018-02-02T19:25:01.794Z,99628.98
2018-02-02T19:27:30.249Z,99627.66
2018-02-02T19:29:58.685Z,99623.77
2018-02-02T19:32:27.157Z,99625.08
2018-02-02T19:34:56.071Z,99626.33
2018-02-02T19:37:24.508Z,99622.42
2018-02-02T19:39:52.963Z,99623.75
2018-02-02T19:42:21.537Z,99625.94
2018-02-02T19:44:49.973Z,99621.12
2018-02-02T19:47:18.900Z,99619.37
2018-02-02T19:49:47.340Z,99623.28
2018-02-02T19:52:16.276Z,99617.20
2018-02-02T19:54:44.724Z,99620.22
2018-02-02T19:57:19.249Z,99618.04
2018-02-02T19:59:48.095Z,99623.69
2018-02-02T20:02:16.531Z,99613.27
2018-02-02T20:04:45.325Z,99615.03
2018-02-02T20:07:13.821Z,99625.03
2018-02-02T20:09:42.704Z,99619.36
2018-02-02T20:12:11.295Z,99626.33
2018-02-02T20:14:39.739Z,99618.97
2018-02-02T20:17:08.584Z,99622.38
2018-02-02T20:19:37.472Z,99623.69
2018-02-02T20:22:05.927Z,99620.14
2018-02-02T20:24:34.512Z,99627.64
2018-02-02T20:27:03.019Z,99628.96
2018-02-02T20:29:31.480Z,99625.38
2018-02-02T20:31:59.947Z,99622.39
2018-02-02T20:34:28.403Z,99626.30
2018-02-02T20:36:57.314Z,99626.18
2018-02-02T20:39:25.755Z,99627.45
2018-02-02T20:41:54.200Z,99626.16
2018-02-02T20:44:22.676Z,99628.33
2018-02-02T20:46:51.282Z,99626.30
2018-02-02T20:49:19.728Z,99623.64
2018-02-02T20:51:48.208Z,99634.05
2018-02-02T20:54:16.657Z,99635.30
2018-02-02T20:56:45.494Z,99638.78
2018-02-02T20:59:13.958Z,99631.59
2018-02-02T21:01:42.576Z,99633.61
2018-02-02T21:04:11.023Z,99634.08
2018-02-02T21:06:39.621Z,99635.01
2018-02-02T21:09:09.052Z,99628.42
2018-02-02T21:11:37.760Z,99640.27
2018-02-02T21:14:07.146Z,99635.86
2018-02-02T21:16:36.273Z,99631.88
2018-02-02T21:19:06.592Z,99631.02
2018-02-02T21:21:36.610Z,99636.80
2018-02-02T21:24:06.748Z,99632.39
2018-02-02T21:26:35.946Z,99634.05
2018-02-02T21:29:05.025Z,99622.70
2018-02-02T21:31:33.716Z,99626.31
2018-02-02T21:34:02.787Z,99632.82
2018-02-02T21:36:32.240Z,99625.42
2018-02-02T21:39:02.039Z,99635.42
2018-02-02T21:41:31.842Z,99642.45
2018-02-02T21:44:04.714Z,99636.80
2018-02-02T21:46:33.694Z,99639.83
2018-02-02T21:49:04.014Z,99633.72
2018-02-02T21:51:33.204Z,99632.84
2018-02-02T21:54:03.487Z,99625.48
2018-02-02T21:56:32.661Z,99636.73
2018-02-02T21:59:02.794Z,99635.00
2018-02-02T22:01:32.111Z,99637.28
2018-02-02T22:04:01.544Z,99642.81
2018-02-02T22:06:30.371Z,99642.77
2018-02-02T22:08:59.536Z,99646.19
2018-02-02T22:11:28.085Z,99644.87
2018-02-02T22:13:56.794Z,99651.37
2018-02-02T22:16:25.270Z,99653.05
2018-02-02T22:18:53.723Z,99653.98
2018-02-02T22:21:23.070Z,99660.00
2018-02-02T22:23:51.636Z,99651.31
2018-02-02T22:26:20.391Z,99658.19
2018-02-02T22:28:48.864Z,99654.77
2018-02-02T22:31:18.484Z,99659.94
2018-02-02T22:33:47.507Z,99658.34
2018-02-02T22:36:17.732Z,99664.42
2018-02-02T22:38:47.310Z,99665.64
2018-02-02T22:41:17.200Z,99657.81
2018-02-02T22:43:46.270Z,99665.59
2018-02-02T22:46:15.966Z,99662.62
2018-02-02T22:48:45.024Z,99657.38
2018-02-02T22:51:14.442Z,99654.38
2018-02-02T22:53:43.561Z,99652.12
2018-02-02T22:56:12.034Z,99658.71
2018-02-02T22:58:40.797Z,99654.06
2018-02-02T23:01:09.678Z,99657.98
2018-02-02T23:03:40.190Z,99652.45
2018-02-02T23:06:09.066Z,99658.53
2018-02-02T23:08:37.597Z,99650.71
2018-02-02T23:11:06.084Z,99653.78
2018-02-02T23:13:34.943Z,99649.87
2018-02-02T23:16:04.266Z,99655.12
2018-02-02T23:18:33.491Z,99656.42
2018-02-02T23:21:02.626Z,99661.20
2018-02-02T23:23:31.915Z,99653.83
2018-02-02T23:26:02.268Z,99652.52
2018-02-02T23:28:31.493Z,99651.64
2018-02-02T23:31:01.796Z,99653.35
2018-02-02T23:33:30.960Z,99647.23
2018-02-02T23:36:01.599Z,99651.62
2018-02-02T23:38:30.983Z,99638.98
2018-02-02T23:40:59.867Z,99650.67
2018-02-02T23:43:28.604Z,99649.80
2018-02-02T23:45:57.410Z,99650.67
2018-02-02T23:48:26.241Z,99647.20
2018-02-02T23:50:55.395Z,99645.89
2018-02-02T23:53:24.230Z,99643.71
2018-02-02T23:55:54.075Z,99651.53
2018-02-02T23:58:22.817Z,99645.49
